Time,TemperatureF,DewpointF,PressureIn,WindDirection,WindDirectionDegrees,WindSpeedMPH,WindSpeedGustMPH,Humidity,HourlyPrecipIn,Conditions,Clouds,dailyrainin,SoftwareType,DateUTC
2013-08-23 00:05:00,59.3,56.0,29.87,WSW,240,0.0,0.0,88,0.00,,,0.00,weatherlink.com 1.10,2013-08-23 07:05:00,
2013-08-23 00:20:00,58.6,55.0,29.87,WSW,240,0.0,0.0,88,0.00,,,0.00,weatherlink.com 1.10,2013-08-23 07:20:00,
2013-08-23 00:35:00,58.8,56.0,29.87,ENE,73,0.0,1.0,89,0.00,,,0.00,weatherlink.com 1.10,2013-08-23 07:35:00,
2013-08-23 00:50:00,59.0,56.0,29.87,ENE,73,0.0,0.0,88,0.00,,,0.00,weatherlink.com 1.10,2013-08-23 07:50:00,
2013-08-23 01:05:00,58.1,54.0,29.87,ENE,72,0.0,0.0,87,0.00,,,0.00,weatherlink.com 1.10,2013-08-23 08:05:00,
2013-08-23 01:20:00,57.2,54.0,29.86,ENE,73,0.0,0.0,88,0.00,,,0.00,weatherlink.com 1.10,2013-08-23 08:20:00,
2013-08-23 01:35:00,56.9,54.0,29.86,ENE,72,0.0,0.0,90,0.00,,,0.00,weatherlink.com 1.10,2013-08-23 08:35:00,
2013-08-23 01:50:00,57.9,55.0,29.86,ENE,67,0.0,2.0,89,0.00,,,0.00,weatherlink.com 1.10,2013-08-23 08:50:00,
2013-08-23 02:05:00,58.2,54.0,29.86,ENE,71,0.0,3.0,87,0.00,,,0.00,weatherlink.com 1.10,2013-08-23 09:05:00,
2013-08-23 02:20:00,58.0,54.0,29.85,East,80,0.0,2.0,86,0.00,,,0.00,weatherlink.com 1.10,2013-08-23 09:20:00,
2013-08-23 02:35:00,57.3,53.0,29.85,ESE,105,0.0,0.0,86,0.00,,,0.00,weatherlink.com 1.10,2013-08-23 09:35:00,
2013-08-23 02:50:00,56.6,53.0,29.85,ESE,105,0.0,0.0,88,0.00,,,0.00,weatherlink.com 1.10,2013-08-23 09:50:00,
2013-08-23 03:05:00,56.2,53.0,29.85,ESE,105,0.0,0.0,89,0.00,,,0.00,weatherlink.com 1.10,2013-08-23 10:05:00,
2013-08-23 03:20:00,56.2,53.0,29.85,ESE,105,0.0,0.0,90,0.00,,,0.00,weatherlink.com 1.10,2013-08-23 10:20:00,
2013-08-23 03:35:00,55.4,53.0,29.85,ESE,105,0.0,0.0,90,0.00,,,0.00,weatherlink.com 1.10,2013-08-23 10:35:00,
2013-08-23 03:50:00,55.6,53.0,29.84,ESE,105,0.0,0.0,91,0.00,,,0.00,weatherlink.com 1.10,2013-08-23 10:50:00,
2013-08-23 04:05:00,55.6,53.0,29.84,ESE,105,0.0,0.0,92,0.00,,,0.00,weatherlink.com 1.10,2013-08-23 11:05:00,
2013-08-23 04:20:00,55.8,53.0,29.84,East,79,1.0,1.0,90,0.00,,,0.00,weatherlink.com 1.10,2013-08-23 11:20:00,
2013-08-23 04:35:00,55.4,52.0,29.84,ENE,76,0.0,1.0,88,0.00,,,0.00,weatherlink.com 1.10,2013-08-23 11:35:00,
2013-08-23 04:50:00,54.8,52.0,29.84,ENE,75,0.0,0.0,89,0.00,,,0.00,weatherlink.com 1.10,2013-08-23 11:50:00,
2013-08-23 05:05:00,54.2,51.0,29.84,ENE,75,0.0,0.0,90,0.00,,,0.00,weatherlink.com 1.10,2013-08-23 12:05:00,
2013-08-23 05:21:00,53.7,51.0,29.85,ENE,75,0.0,0.0,91,0.00,,,0.00,weatherlink.com 1.10,2013-08-23 12:21:00,
2013-08-23 05:36:00,54.3,52.0,29.85,ENE,76,0.0,0.0,91,0.00,,,0.00,weatherlink.com 1.10,2013-08-23 12:36:00,
2013-08-23 05:51:00,53.4,51.0,29.85,ENE,75,0.0,0.0,91,0.00,,,0.00,weatherlink.com 1.10,2013-08-23 12:51:00,
2013-08-23 06:06:00,52.9,51.0,29.85,ENE,75,0.0,0.0,92,0.00,,,0.00,weatherlink.com 1.10,2013-08-23 13:06:00,
2013-08-23 06:21:00,53.4,51.0,29.86,ENE,75,0.0,0.0,92,0.00,,,0.00,weatherlink.com 1.10,2013-08-23 13:21:00,
2013-08-23 06:36:00,53.5,51.0,29.86,ENE,75,0.0,0.0,92,0.00,,,0.00,weatherlink.com 1.10,2013-08-23 13:36:00,
2013-08-23 06:51:00,54.6,52.0,29.86,ENE,73,0.0,1.0,92,0.00,,,0.00,weatherlink.com 1.10,2013-08-23 13:51:00,
2013-08-23 07:06:00,56.9,54.0,29.86,ENE,75,0.0,0.0,91,0.00,,,0.00,weatherlink.com 1.10,2013-08-23 14:06:00,
2013-08-23 07:21:00,59.9,56.0,29.86,ENE,75,0.0,0.0,86,0.00,,,0.00,weatherlink.com 1.10,2013-08-23 14:21:00,
2013-08-23 07:36:00,61.1,56.0,29.86,ESE,118,0.0,1.0,82,0.00,,,0.00,weatherlink.com 1.10,2013-08-23 14:36:00,
2013-08-23 07:51:00,61.8,55.0,29.86,East,88,1.0,1.0,79,0.00,,,0.00,weatherlink.com 1.10,2013-08-23 14:51:00,
2013-08-23 08:06:00,63.3,57.0,29.87,ESE,108,0.0,1.0,79,0.00,,,0.00,weatherlink.com 1.10,2013-08-23 15:06:00,
2013-08-23 08:21:00,65.5,58.0,29.86,SE,137,0.0,1.0,78,0.00,,,0.00,weatherlink.com 1.10,2013-08-23 15:21:00,
2013-08-23 08:36:00,66.1,59.0,29.86,ESE,112,1.0,2.0,77,0.00,,,0.00,weatherlink.com 1.10,2013-08-23 15:36:00,
2013-08-23 08:51:00,68.8,59.0,29.86,SW,231,2.0,2.0,72,0.00,,,0.00,weatherlink.com 1.10,2013-08-23 15:51:00,
2013-08-23 09:06:00,69.8,60.0,29.86,SE,129,0.0,2.0,70,0.00,,,0.00,weatherlink.com 1.10,2013-08-23 16:06:00,
2013-08-23 09:21:00,70.1,59.0,29.86,West,273,3.0,3.0,68,0.00,,,0.00,weatherlink.com 1.10,2013-08-23 16:21:00,
2013-08-23 09:36:00,71.9,60.0,29.86,WSW,243,0.0,4.0,67,0.00,,,0.00,weatherlink.com 1.10,2013-08-23 16:36:00,
2013-08-23 09:51:00,71.9,59.0,29.86,WNW,303,1.0,5.0,63,0.00,,,0.00,weatherlink.com 1.10,2013-08-23 16:51:00,
2013-08-23 10:06:00,73.6,59.0,29.86,ENE,77,0.0,3.0,61,0.00,,,0.00,weatherlink.com 1.10,2013-08-23 17:06:00,
2013-08-23 10:21:00,74.6,60.0,29.86,ESE,111,2.0,4.0,60,0.00,,,0.00,weatherlink.com 1.10,2013-08-23 17:21:00,
2013-08-23 10:36:00,76.7,59.0,29.86,NW,313,0.0,3.0,55,0.00,,,0.00,weatherlink.com 1.10,2013-08-23 17:36:00,
2013-08-23 10:51:00,76.6,59.0,29.85,SSW,213,3.0,6.0,54,0.00,,,0.00,weatherlink.com 1.10,2013-08-23 17:51:00,
2013-08-23 11:06:00,77.2,60.0,29.85,SW,223,2.0,6.0,55,0.00,,,0.00,weatherlink.com 1.10,2013-08-23 18:06:00,
2013-08-23 11:21:00,77.3,59.0,29.85,WNW,282,0.0,7.0,54,0.00,,,0.00,weatherlink.com 1.10,2013-08-23 18:21:00,
2013-08-23 11:36:00,78.8,60.0,29.84,WNW,288,4.0,7.0,53,0.00,,,0.00,weatherlink.com 1.10,2013-08-23 18:36:00,
2013-08-23 11:51:00,79.1,59.0,29.84,ENE,74,2.0,6.0,50,0.00,,,0.00,weatherlink.com 1.10,2013-08-23 18:51:00,
2013-08-23 12:07:00,79.9,59.0,29.84,SSW,199,5.0,9.0,49,0.00,,,0.00,weatherlink.com 1.10,2013-08-23 19:07:00,
2013-08-23 12:22:00,79.7,59.0,29.84,SW,223,3.0,7.0,50,0.00,,,0.00,weatherlink.com 1.10,2013-08-23 19:22:00,
2013-08-23 12:37:00,79.1,59.0,29.83,SW,216,2.0,8.0,50,0.00,,,0.00,weatherlink.com 1.10,2013-08-23 19:37:00,
2013-08-23 12:52:00,79.3,58.0,29.83,SW,228,7.0,8.0,49,0.00,,,0.00,weatherlink.com 1.10,2013-08-23 19:52:00,
2013-08-23 13:07:00,79.1,59.0,29.83,WSW,257,9.0,11.0,50,0.00,,,0.00,weatherlink.com 1.10,2013-08-23 20:07:00,
2013-08-23 13:22:00,79.2,59.0,29.82,West,276,7.0,11.0,50,0.00,,,0.00,weatherlink.com 1.10,2013-08-23 20:22:00,
2013-08-23 13:37:00,79.8,59.0,29.82,West,264,5.0,8.0,49,0.00,,,0.00,weatherlink.com 1.10,2013-08-23 20:37:00,
2013-08-23 13:52:00,79.5,59.0,29.81,WSW,257,3.0,10.0,50,0.00,,,0.00,weatherlink.com 1.10,2013-08-23 20:52:00,
2013-08-23 14:07:00,79.0,60.0,29.81,WSW,238,5.0,10.0,52,0.00,,,0.00,weatherlink.com 1.10,2013-08-23 21:07:00,
2013-08-23 14:22:00,79.4,59.0,29.81,West,261,6.0,9.0,50,0.00,,,0.00,weatherlink.com 1.10,2013-08-23 21:22:00,
2013-08-23 14:37:00,80.1,58.0,29.80,WSW,258,6.0,8.0,47,0.00,,,0.00,weatherlink.com 1.10,2013-08-23 21:37:00,
2013-08-23 14:52:00,79.6,59.0,29.80,West,275,3.0,8.0,50,0.00,,,0.00,weatherlink.com 1.10,2013-08-23 21:52:00,
2013-08-23 15:07:00,80.2,58.0,29.79,South,175,2.0,8.0,46,0.00,,,0.00,weatherlink.com 1.10,2013-08-23 22:07:00,
2013-08-23 15:22:00,79.4,59.0,29.79,WSW,241,4.0,9.0,49,0.00,,,0.00,weatherlink.com 1.10,2013-08-23 22:22:00,
2013-08-23 15:37:00,79.9,58.0,29.79,WSW,245,5.0,10.0,48,0.00,,,0.00,weatherlink.com 1.10,2013-08-23 22:37:00,
2013-08-23 15:52:00,78.7,57.0,29.78,SSW,202,3.0,8.0,48,0.00,,,0.00,weatherlink.com 1.10,2013-08-23 22:52:00,
2013-08-23 16:07:00,78.9,58.0,29.78,West,275,0.0,8.0,49,0.00,,,0.00,weatherlink.com 1.10,2013-08-23 23:07:00,
2013-08-23 16:22:00,79.3,58.0,29.78,WSW,244,3.0,8.0,49,0.00,,,0.00,weatherlink.com 1.10,2013-08-23 23:22:00,
2013-08-23 16:37:00,80.8,60.0,29.77,ESE,115,0.0,3.0,49,0.00,,,0.00,weatherlink.com 1.10,2013-08-23 23:37:00,
2013-08-23 16:52:00,79.6,60.0,29.77,WSW,255,3.0,5.0,51,0.00,,,0.00,weatherlink.com 1.10,2013-08-23 23:52:00,
2013-08-23 17:07:00,79.1,60.0,29.76,WSW,250,1.0,5.0,53,0.00,,,0.00,weatherlink.com 1.10,2013-08-24 00:07:00,
2013-08-23 17:22:00,78.3,60.0,29.76,WNW,282,2.0,6.0,54,0.00,,,0.00,weatherlink.com 1.10,2013-08-24 00:22:00,
2013-08-23 17:37:00,78.3,60.0,29.76,WSW,240,0.0,6.0,53,0.00,,,0.00,weatherlink.com 1.10,2013-08-24 00:37:00,
2013-08-23 17:52:00,77.3,59.0,29.75,West,265,1.0,7.0,54,0.00,,,0.00,weatherlink.com 1.10,2013-08-24 00:52:00,
2013-08-23 18:07:00,76.2,59.0,29.75,WSW,246,1.0,6.0,56,0.00,,,0.00,weatherlink.com 1.10,2013-08-24 01:07:00,
2013-08-23 18:22:00,75.5,59.0,29.75,WSW,250,2.0,4.0,57,0.00,,,0.00,weatherlink.com 1.10,2013-08-24 01:22:00,
2013-08-23 18:38:00,74.8,59.0,29.75,SW,216,1.0,5.0,58,0.00,,,0.00,weatherlink.com 1.10,2013-08-24 01:38:00,
2013-08-23 18:53:00,73.6,59.0,29.75,WSW,244,1.0,4.0,60,0.00,,,0.00,weatherlink.com 1.10,2013-08-24 01:53:00,
2013-08-23 19:08:00,73.4,59.0,29.75,SW,216,0.0,2.0,61,0.00,,,0.00,weatherlink.com 1.10,2013-08-24 02:08:00,
2013-08-23 19:23:00,71.1,59.0,29.76,WSW,251,0.0,2.0,65,0.00,,,0.00,weatherlink.com 1.10,2013-08-24 02:23:00,
2013-08-23 19:38:00,69.4,59.0,29.76,West,279,2.0,4.0,70,0.00,,,0.00,weatherlink.com 1.10,2013-08-24 02:38:00,
2013-08-23 19:53:00,68.0,59.0,29.76,WSW,246,1.0,4.0,74,0.00,,,0.00,weatherlink.com 1.10,2013-08-24 02:53:00,
2013-08-23 20:08:00,67.0,60.0,29.77,SW,216,1.0,4.0,78,0.00,,,0.00,weatherlink.com 1.10,2013-08-24 03:08:00,
2013-08-23 20:23:00,66.9,60.0,29.77,West,264,0.0,2.0,78,0.00,,,0.00,weatherlink.com 1.10,2013-08-24 03:23:00,
2013-08-23 20:38:00,66.4,60.0,29.77,WSW,250,0.0,1.0,79,0.00,,,0.00,weatherlink.com 1.10,2013-08-24 03:38:00,
2013-08-23 20:53:00,65.9,60.0,29.77,WSW,250,0.0,1.0,80,0.00,,,0.00,weatherlink.com 1.10,2013-08-24 03:53:00,
2013-08-23 21:08:00,64.9,60.0,29.78,SW,228,0.0,1.0,83,0.00,,,0.00,weatherlink.com 1.10,2013-08-24 04:08:00,
2013-08-23 21:23:00,64.7,59.0,29.78,SW,231,0.0,1.0,83,0.00,,,0.00,weatherlink.com 1.10,2013-08-24 04:23:00,
2013-08-23 21:38:00,64.0,59.0,29.78,SW,231,0.0,1.0,84,0.00,,,0.00,weatherlink.com 1.10,2013-08-24 04:38:00,
2013-08-23 21:53:00,63.5,59.0,29.79,SW,231,0.0,0.0,86,0.00,,,0.00,weatherlink.com 1.10,2013-08-24 04:53:00,
2013-08-23 22:08:00,63.6,59.0,29.79,SW,231,0.0,0.0,84,0.00,,,0.00,weatherlink.com 1.10,2013-08-24 05:08:00,
2013-08-23 22:23:00,62.4,58.0,29.79,SW,231,0.0,0.0,85,0.00,,,0.00,weatherlink.com 1.10,2013-08-24 05:23:00,
2013-08-23 22:38:00,62.7,59.0,29.79,SW,231,0.0,0.0,87,0.00,,,0.00,weatherlink.com 1.10,2013-08-24 05:38:00,
2013-08-23 22:53:00,62.4,58.0,29.79,SW,233,0.0,0.0,86,0.00,,,0.00,weatherlink.com 1.10,2013-08-24 05:53:00,
2013-08-23 23:08:00,61.8,58.0,29.80,SW,233,0.0,0.0,87,0.00,,,0.00,weatherlink.com 1.10,2013-08-24 06:08:00,
2013-08-23 23:23:00,61.9,58.0,29.80,SW,233,0.0,0.0,88,0.00,,,0.00,weatherlink.com 1.10,2013-08-24 06:23:00,
2013-08-23 23:38:00,60.9,57.0,29.81,SW,233,0.0,0.0,87,0.00,,,0.00,weatherlink.com 1.10,2013-08-24 06:38:00,
2013-08-23 23:53:00,59.9,57.0,29.81,SW,233,0.0,0.0,89,0.00,,,0.00,weatherlink.com 1.10,2013-08-24 06:53:00,